PDT,Max TemperatureF,Mean TemperatureF,Min TemperatureF,Max Dew PointF,MeanDew PointF,Min DewpointF,Max Humidity, Mean Humidity, Min Humidity, Max Sea Level PressureIn, Mean Sea Level PressureIn, Min Sea Level PressureIn, Max VisibilityMiles, Mean VisibilityMiles, Min VisibilityMiles, Max Wind SpeedMPH, Mean Wind SpeedMPH, Max Gust SpeedMPH,PrecipitationIn, CloudCover, Events, WindDirDegrees
2013-3-1,68,58,48,45,37,32,63,49,35,30.45,30.37,30.31,10,10,10,9,6,,0.00,0,,89
2013-3-2,68,60,53,43,36,27,63,42,30,30.31,30.21,30.12,10,10,10,8,5,,0.00,2,,152
2013-3-3,53,48,44,46,43,39,93,80,72,30.14,30.07,30.04,10,10,9,14,5,20,0.00,7,,136
2013-3-4,62,52,41,46,40,32,93,67,42,30.12,30.08,30.05,10,10,10,12,7,,0.00,2,,115
2013-3-5,57,49,41,43,39,30,100,69,53,30.05,29.96,29.84,10,10,6,28,8,37,0.09,4,,189
2013-3-6,46,40,35,39,37,34,100,88,66,30.06,29.97,29.82,10,8,0,29,16,41,0.55,6,,193
2013-3-7,48,42,37,37,33,28,93,75,54,29.98,29.91,29.85,10,10,7,12,3,,0.00,7,,98
2013-3-8,53,45,37,37,33,27,87,65,46,30.01,29.86,29.78,10,10,5,20,6,28,0.02,4,,40
2013-3-9,59,48,37,37,31,14,100,60,24,30.30,30.20,30.02,10,10,10,14,3,20,0.00,2,,350
2013-3-10,59,49,39,41,29,10,81,48,19,30.34,30.30,30.28,10,10,10,15,6,,0.00,0,,333
2013-3-11,64,54,44,43,36,25,71,49,35,30.29,30.22,30.16,10,10,10,9,5,,0.00,0,,189
2013-3-12,68,58,48,46,42,37,71,55,40,30.20,30.16,30.14,10,10,10,9,5,,0.00,0,,132
2013-3-13,73,62,51,46,42,36,63,48,29,30.23,30.20,30.17,10,10,10,9,6,,0.00,0,,111
2013-3-14,73,65,57,46,38,28,63,39,26,30.22,30.18,30.15,10,10,10,9,6,,0.00,0,,146
2013-3-15,68,62,55,45,39,32,67,45,30,30.15,30.12,30.08,10,10,10,9,5,,0.00,0,,28
2013-3-16,68,59,50,46,34,27,58,41,23,30.11,30.07,30.05,10,10,10,12,7,,0.00,1,,51
2013-3-17,60,53,46,37,34,28,62,48,39,30.12,30.09,30.06,10,10,10,12,7,,0.00,1,,71
2013-3-18,64,55,46,39,31,19,62,41,24,30.13,30.09,30.05,10,10,9,14,8,,0.00,1,,121
2013-3-19,64,54,44,46,37,32,100,56,32,30.17,30.12,30.08,10,9,4,15,6,18,0.24,5,,156
2013-3-20,51,48,44,48,47,45,100,97,87,30.14,30.12,30.09,10,5,0,16,9,23,0.89,7,,159
2013-3-21,55,48,42,48,43,32,100,82,54,30.11,30.05,30.01,10,7,0,10,3,,0.00,4,,316
2013-3-22,55,50,44,39,23,9,76,38,20,30.06,30.02,29.98,10,10,10,14,8,18,0.00,2,,13
2013-3-23,60,51,42,32,21,7,50,31,20,30.12,30.08,30.03,10,10,10,15,9,,0.00,1,,107
2013-3-24,64,54,44,36,30,23,58,39,27,30.10,30.06,30.01,10,10,10,13,5,,0.00,0,,37
2013-3-25,64,55,46,45,38,30,87,55,34,30.03,29.99,29.95,10,10,10,10,6,16,0.00,1,,158
2013-3-26,62,53,44,45,40,37,87,61,39,30.00,29.97,29.94,10,10,10,14,5,20,0.00,5,,194
2013-3-27,62,54,46,48,42,36,87,65,52,30.04,29.99,29.95,10,10,10,9,6,16,0.00,4,,185
2013-3-28,60,54,48,48,45,39,93,75,51,30.13,30.09,30.04,10,10,7,10,2,,0.00,6,,257
2013-3-29,69,58,48,41,39,36,71,48,33,30.15,30.12,30.09,10,10,10,12,7,16,0.00,0,,106
2013-3-30,71,62,53,50,44,37,77,54,37,30.10,30.07,30.02,10,10,10,12,7,,0.00,2,,154
2013-3-31,59,52,44,48,45,41,100,84,55,30.12,30.07,30.03,10,9,2,15,6,30,0.62,6,,151